sensor_id;sensor_type;location;lat;lon;timestamp;pressure;altitude;pressure_sealevel;temperature;humidity
5296;BME280;2670;42.720;23.336;2023-05-07T00:01:58;-22756.56;;;10.81;100.00
5296;BME280;2670;42.720;23.336;2023-05-07T00:04:24;-22752.56;;;10.67;100.00
5296;BME280;2670;42.720;23.336;2023-05-07T00:06:51;-22752.69;;;10.68;100.00
5296;BME280;2670;42.720;23.336;2023-05-07T00:09:18;-22753.75;;;10.71;100.00
5296;BME280;2670;42.720;23.336;2023-05-07T00:11:45;-22755.50;;;10.78;100.00
5296;BME280;2670;42.720;23.336;2023-05-07T00:14:13;-22758.19;;;10.87;100.00
5296;BME280;2670;42.720;23.336;2023-05-07T00:16:39;-22758.91;;;10.89;100.00
5296;BME280;2670;42.720;23.336;2023-05-07T00:19:06;-22758.03;;;10.86;100.00
5296;BME280;2670;42.720;23.336;2023-05-07T00:21:33;-22750.31;;;10.60;100.00
5296;BME280;2670;42.720;23.336;2023-05-07T00:23:59;-22753.00;;;10.69;100.00
5296;BME280;2670;42.720;23.336;2023-05-07T00:26:26;-22750.78;;;10.61;100.00
5296;BME280;2670;42.720;23.336;2023-05-07T00:28:53;-22755.66;;;10.78;100.00
5296;BME280;2670;42.720;23.336;2023-05-07T00:31:21;-22752.56;;;10.67;100.00
5296;BME280;2670;42.720;23.336;2023-05-07T00:33:48;-22750.19;;;10.59;100.00
5296;BME280;2670;42.720;23.336;2023-05-07T00:36:14;-22748.56;;;10.54;100.00
5296;BME280;2670;42.720;23.336;2023-05-07T00:38:41;-22746.19;;;10.45;100.00
5296;BME280;2670;42.720;23.336;2023-05-07T00:41:07;-22741.44;;;10.29;100.00
5296;BME280;2670;42.720;23.336;2023-05-07T00:43:34;-22738.91;;;10.20;100.00
5296;BME280;2670;42.720;23.336;2023-05-07T00:46:01;-22742.78;;;10.34;100.00
5296;BME280;2670;42.720;23.336;2023-05-07T00:48:29;-22742.19;;;10.32;100.00
5296;BME280;2670;42.720;23.336;2023-05-07T00:50:56;-22739.66;;;10.23;100.00
5296;BME280;2670;42.720;23.336;2023-05-07T00:53:23;-22739.94;;;10.24;100.00
5296;BME280;2670;42.720;23.336;2023-05-07T00:55:52;-22738.78;;;10.20;100.00
5296;BME280;2670;42.720;23.336;2023-05-07T00:58:19;-22738.19;;;10.18;100.00
5296;BME280;2670;42.720;23.336;2023-05-07T01:00:46;-22742.78;;;10.34;100.00
5296;BME280;2670;42.720;23.336;2023-05-07T01:03:13;-22742.91;;;10.34;100.00
5296;BME280;2670;42.720;23.336;2023-05-07T01:05:41;-22738.63;;;10.19;100.00
5296;BME280;2670;42.720;23.336;2023-05-07T01:08:09;-22739.22;;;10.21;100.00
5296;BME280;2670;42.720;23.336;2023-05-07T01:10:36;-22738.31;;;10.18;100.00
5296;BME280;2670;42.720;23.336;2023-05-07T01:13:03;-22740.69;;;10.27;100.00
5296;BME280;2670;42.720;23.336;2023-05-07T01:15:31;-22737.00;;;10.14;100.00
5296;BME280;2670;42.720;23.336;2023-05-07T01:17:58;-22739.22;;;10.21;100.00
5296;BME280;2670;42.720;23.336;2023-05-07T01:20:25;-22739.66;;;10.23;100.00
5296;BME280;2670;42.720;23.336;2023-05-07T01:22:54;-22737.59;;;10.16;100.00
5296;BME280;2670;42.720;23.336;2023-05-07T01:25:21;-22736.69;;;10.13;100.00
5296;BME280;2670;42.720;23.336;2023-05-07T01:27:48;-22737.72;;;10.16;100.00
5296;BME280;2670;42.720;23.336;2023-05-07T01:30:16;-22737.00;;;10.14;100.00
5296;BME280;2670;42.720;23.336;2023-05-07T01:32:45;-22736.09;;;10.11;100.00
5296;BME280;2670;42.720;23.336;2023-05-07T01:35:20;-22732.09;;;9.97;100.00
5296;BME280;2670;42.720;23.336;2023-05-07T01:37:49;-22730.16;;;9.90;100.00
5296;BME280;2670;42.720;23.336;2023-05-07T01:40:17;-22732.09;;;9.97;100.00
5296;BME280;2670;42.720;23.336;2023-05-07T01:42:45;-22731.34;;;9.94;100.00
5296;BME280;2670;42.720;23.336;2023-05-07T01:45:13;-22731.94;;;9.96;100.00
5296;BME280;2670;42.720;23.336;2023-05-07T01:47:40;-22732.53;;;9.98;100.00
5296;BME280;2670;42.720;23.336;2023-05-07T01:50:07;-22729.56;;;9.88;100.00
5296;BME280;2670;42.720;23.336;2023-05-07T01:52:37;-22729.56;;;9.88;100.00
5296;BME280;2670;42.720;23.336;2023-05-07T01:55:05;-22728.25;;;9.84;100.00
5296;BME280;2670;42.720;23.336;2023-05-07T01:57:34;-22730.03;;;9.90;100.00
5296;BME280;2670;42.720;23.336;2023-05-07T02:00:00;-22734.19;;;10.04;100.00
5296;BME280;2670;42.720;23.336;2023-05-07T02:02:28;-22729.28;;;9.87;100.00
5296;BME280;2670;42.720;23.336;2023-05-07T02:04:54;-22724.97;;;9.72;100.00
5296;BME280;2670;42.720;23.336;2023-05-07T02:07:21;-22725.88;;;9.76;100.00
5296;BME280;2670;42.720;23.336;2023-05-07T02:09:48;-22726.75;;;9.79;100.00
5296;BME280;2670;42.720;23.336;2023-05-07T02:12:14;-22726.16;;;9.77;100.00
5296;BME280;2670;42.720;23.336;2023-05-07T02:14:42;-22729.44;;;9.88;100.00
5296;BME280;2670;42.720;23.336;2023-05-07T02:17:09;-22727.94;;;9.83;100.00
5296;BME280;2670;42.720;23.336;2023-05-07T02:19:36;-22727.50;;;9.81;100.00
5296;BME280;2670;42.720;23.336;2023-05-07T02:22:02;-22724.38;;;9.70;100.00
5296;BME280;2670;42.720;23.336;2023-05-07T02:24:29;-22725.44;;;9.74;100.00
5296;BME280;2670;42.720;23.336;2023-05-07T02:26:56;-22724.84;;;9.72;100.00
5296;BME280;2670;42.720;23.336;2023-05-07T02:29:23;-22723.94;;;9.69;100.00
5296;BME280;2670;42.720;23.336;2023-05-07T02:31:51;-22723.94;;;9.69;100.00
5296;BME280;2670;42.720;23.336;2023-05-07T02:34:18;-22721.88;;;9.62;100.00
5296;BME280;2670;42.720;23.336;2023-05-07T02:36:45;-22720.97;;;9.59;100.00
5296;BME280;2670;42.720;23.336;2023-05-07T02:39:12;-22717.56;;;9.47;100.00
5296;BME280;2670;42.720;23.336;2023-05-07T02:41:38;-22721.56;;;9.61;100.00
5296;BME280;2670;42.720;23.336;2023-05-07T02:44:05;-22720.84;;;9.58;100.00
5296;BME280;2670;42.720;23.336;2023-05-07T02:46:32;-22721.28;;;9.60;100.00
5296;BME280;2670;42.720;23.336;2023-05-07T02:49:00;-22719.50;;;9.54;100.00
5296;BME280;2670;42.720;23.336;2023-05-07T02:51:27;-22716.69;;;9.44;100.00
5296;BME280;2670;42.720;23.336;2023-05-07T02:53:55;-22717.88;;;9.48;100.00
5296;BME280;2670;42.720;23.336;2023-05-07T02:56:21;-22719.06;;;9.52;100.00
5296;BME280;2670;42.720;23.336;2023-05-07T02:58:48;-22717.13;;;9.45;100.00
5296;BME280;2670;42.720;23.336;2023-05-07T03:01:15;-22716.97;;;9.45;100.00
5296;BME280;2670;42.720;23.336;2023-05-07T03:03:41;-22717.13;;;9.45;100.00
5296;BME280;2670;42.720;23.336;2023-05-07T03:06:09;-22719.19;;;9.53;100.00
5296;BME280;2670;42.720;23.336;2023-05-07T03:08:36;-22718.31;;;9.50;100.00
5296;BME280;2670;42.720;23.336;2023-05-07T03:11:03;-22716.09;;;9.42;100.00
5296;BME280;2670;42.720;23.336;2023-05-07T03:13:30;-22715.50;;;9.40;100.00
5296;BME280;2670;42.720;23.336;2023-05-07T03:15:56;-22718.00;;;9.48;100.00
5296;BME280;2670;42.720;23.336;2023-05-07T03:18:23;-22718.75;;;9.51;100.00
5296;BME280;2670;42.720;23.336;2023-05-07T03:20:51;-22715.63;;;9.40;100.00
5296;BME280;2670;42.720;23.336;2023-05-07T03:23:19;-22715.50;;;9.40;100.00
5296;BME280;2670;42.720;23.336;2023-05-07T03:25:46;-22712.38;;;9.29;100.00
5296;BME280;2670;42.720;23.336;2023-05-07T03:28:12;-22715.03;;;9.38;100.00
5296;BME280;2670;42.720;23.336;2023-05-07T03:30:39;-22714.59;;;9.37;100.00
5296;BME280;2670;42.720;23.336;2023-05-07T03:33:06;-22713.28;;;9.32;100.00
5296;BME280;2670;42.720;23.336;2023-05-07T03:35:33;-22715.50;;;9.40;100.00
5296;BME280;2670;42.720;23.336;2023-05-07T03:37:59;-22709.13;;;9.18;100.00
5296;BME280;2670;42.720;23.336;2023-05-07T03:40:28;-22714.00;;;9.35;100.00
5296;BME280;2670;42.720;23.336;2023-05-07T03:42:54;-22716.97;;;9.45;100.00
5296;BME280;2670;42.720;23.336;2023-05-07T03:45:21;-22711.19;;;9.25;100.00
5296;BME280;2670;42.720;23.336;2023-05-07T03:47:48;-22712.09;;;9.28;100.00
5296;BME280;2670;42.720;23.336;2023-05-07T03:50:15;-22710.16;;;9.21;100.00
5296;BME280;2670;42.720;23.336;2023-05-07T03:52:41;-22707.19;;;9.11;100.00
5296;BME280;2670;42.720;23.336;2023-05-07T03:55:09;-22705.41;;;9.05;100.00
5296;BME280;2670;42.720;23.336;2023-05-07T03:57:37;-22706.28;;;9.08;100.00
5296;BME280;2670;42.720;23.336;2023-05-07T04:00:05;-22705.41;;;9.05;100.00
5296;BME280;2670;42.720;23.336;2023-05-07T04:02:33;-22710.91;;;9.24;100.00
5296;BME280;2670;42.720;23.336;2023-05-07T04:04:59;-22712.38;;;9.29;100.00
5296;BME280;2670;42.720;23.336;2023-05-07T04:07:26;-22714.00;;;9.35;100.00
5296;BME280;2670;42.720;23.336;2023-05-07T04:09:53;-22707.94;;;9.14;100.00
5296;BME280;2670;42.720;23.336;2023-05-07T04:12:19;-22703.03;;;8.97;100.00
5296;BME280;2670;42.720;23.336;2023-05-07T04:14:47;-22709.56;;;9.19;100.00
5296;BME280;2670;42.720;23.336;2023-05-07T04:17:14;-22710.91;;;9.24;100.00
5296;BME280;2670;42.720;23.336;2023-05-07T04:19:41;-22707.19;;;9.11;100.00
5296;BME280;2670;42.720;23.336;2023-05-07T04:22:10;-22706.44;;;9.09;100.00
5296;BME280;2670;42.720;23.336;2023-05-07T04:24:37;-22710.31;;;9.22;100.00
5296;BME280;2670;42.720;23.336;2023-05-07T04:27:03;-22706.75;;;9.10;100.00
5296;BME280;2670;42.720;23.336;2023-05-07T04:29:31;-22713.84;;;9.34;100.00
5296;BME280;2670;42.720;23.336;2023-05-07T04:31:59;-22712.97;;;9.31;100.00
5296;BME280;2670;42.720;23.336;2023-05-07T04:34:26;-22707.78;;;9.13;100.00
5296;BME280;2670;42.720;23.336;2023-05-07T04:36:53;-22708.81;;;9.17;100.00
5296;BME280;2670;42.720;23.336;2023-05-07T04:39:20;-22713.28;;;9.32;100.00
5296;BME280;2670;42.720;23.336;2023-05-07T04:41:46;-22707.94;;;9.14;100.00
5296;BME280;2670;42.720;23.336;2023-05-07T04:44:13;-22709.13;;;9.18;100.00
5296;BME280;2670;42.720;23.336;2023-05-07T04:46:40;-22709.41;;;9.19;100.00
5296;BME280;2670;42.720;23.336;2023-05-07T04:49:08;-22712.09;;;9.28;100.00
5296;BME280;2670;42.720;23.336;2023-05-07T04:51:35;-22715.03;;;9.38;100.00
5296;BME280;2670;42.720;23.336;2023-05-07T04:54:02;-22718.00;;;9.48;100.00
5296;BME280;2670;42.720;23.336;2023-05-07T04:56:29;-22717.88;;;9.48;100.00
5296;BME280;2670;42.720;23.336;2023-05-07T04:58:56;-22718.91;;;9.52;100.00
5296;BME280;2670;42.720;23.336;2023-05-07T05:01:23;-22721.56;;;9.61;100.00
5296;BME280;2670;42.720;23.336;2023-05-07T05:03:49;-22727.66;;;9.82;100.00
5296;BME280;2670;42.720;23.336;2023-05-07T05:06:17;-22730.47;;;9.91;100.00
5296;BME280;2670;42.720;23.336;2023-05-07T05:08:44;-22735.38;;;10.08;100.00
5296;BME280;2670;42.720;23.336;2023-05-07T05:11:11;-22733.13;;;10.01;100.00
5296;BME280;2670;42.720;23.336;2023-05-07T05:13:37;-22734.03;;;10.04;100.00
5296;BME280;2670;42.720;23.336;2023-05-07T05:16:05;-22742.19;;;10.32;100.00
5296;BME280;2670;42.720;23.336;2023-05-07T05:18:33;-22740.09;;;10.25;100.00
5296;BME280;2670;42.720;23.336;2023-05-07T05:20:59;-22743.97;;;10.38;100.00
5296;BME280;2670;42.720;23.336;2023-05-07T05:23:27;-22742.19;;;10.32;100.00
5296;BME280;2670;42.720;23.336;2023-05-07T05:25:55;-22745.28;;;10.42;100.00
5296;BME280;2670;42.720;23.336;2023-05-07T05:28:22;-22747.81;;;10.51;100.00
5296;BME280;2670;42.720;23.336;2023-05-07T05:30:49;-22745.59;;;10.43;100.00
5296;BME280;2670;42.720;23.336;2023-05-07T05:33:16;-22743.66;;;10.37;100.00
5296;BME280;2670;42.720;23.336;2023-05-07T05:35:43;-22747.38;;;10.50;100.00
5296;BME280;2670;42.720;23.336;2023-05-07T05:38:10;-22749.44;;;10.57;100.00
5296;BME280;2670;42.720;23.336;2023-05-07T05:40:38;-22756.09;;;10.80;100.00
5296;BME280;2670;42.720;23.336;2023-05-07T05:43:05;-22756.41;;;10.81;100.00
5296;BME280;2670;42.720;23.336;2023-05-07T05:45:32;-22759.50;;;10.91;100.00
5296;BME280;2670;42.720;23.336;2023-05-07T05:47:59;-22765.13;;;11.11;100.00
5296;BME280;2670;42.720;23.336;2023-05-07T05:50:25;-22767.50;;;11.19;100.00
5296;BME280;2670;42.720;23.336;2023-05-07T05:52:52;-22766.47;;;11.15;100.00
5296;BME280;2670;42.720;23.336;2023-05-07T05:55:19;-22771.66;;;11.33;100.00
5296;BME280;2670;42.720;23.336;2023-05-07T05:57:48;-22774.47;;;11.43;100.00
5296;BME280;2670;42.720;23.336;2023-05-07T06:00:15;-22776.69;;;11.51;100.00
5296;BME280;2670;42.720;23.336;2023-05-07T06:02:42;-22776.97;;;11.52;100.00
5296;BME280;2670;42.720;23.336;2023-05-07T06:05:09;-22776.69;;;11.51;100.00
5296;BME280;2670;42.720;23.336;2023-05-07T06:07:36;-22783.94;;;11.76;100.00
5296;BME280;2670;42.720;23.336;2023-05-07T06:10:03;-22783.03;;;11.72;100.00
5296;BME280;2670;42.720;23.336;2023-05-07T06:12:29;-22783.94;;;11.76;100.00
5296;BME280;2670;42.720;23.336;2023-05-07T06:14:57;-22792.38;;;12.05;100.00
5296;BME280;2670;42.720;23.336;2023-05-07T06:17:24;-22797.41;;;12.22;100.00
5296;BME280;2670;42.720;23.336;2023-05-07T06:19:51;-22801.69;;;12.37;100.00
5296;BME280;2670;42.720;23.336;2023-05-07T06:22:18;-22801.53;;;12.36;100.00
5296;BME280;2670;42.720;23.336;2023-05-07T06:24:45;-22801.81;;;12.37;100.00
5296;BME280;2670;42.720;23.336;2023-05-07T06:27:11;-22800.66;;;12.33;100.00
5296;BME280;2670;42.720;23.336;2023-05-07T06:29:38;-22802.84;;;12.41;100.00
5296;BME280;2670;42.720;23.336;2023-05-07T06:32:09;-22809.50;;;12.64;100.00
5296;BME280;2670;42.720;23.336;2023-05-07T06:34:36;-22809.38;;;12.63;100.00
5296;BME280;2670;42.720;23.336;2023-05-07T06:37:04;-22808.63;;;12.61;100.00
5296;BME280;2670;42.720;23.336;2023-05-07T06:39:31;-22814.53;;;12.81;100.00
5296;BME280;2670;42.720;23.336;2023-05-07T06:41:57;-22818.66;;;12.95;100.00
5296;BME280;2670;42.720;23.336;2023-05-07T06:44:24;-22818.53;;;12.95;100.00
5296;BME280;2670;42.720;23.336;2023-05-07T06:46:51;-22822.34;;;13.08;100.00
5296;BME280;2670;42.720;23.336;2023-05-07T06:49:19;-22822.66;;;13.09;100.00
5296;BME280;2670;42.720;23.336;2023-05-07T06:51:46;-22829.44;;;13.33;100.00
5296;BME280;2670;42.720;23.336;2023-05-07T06:54:13;-22826.94;;;13.24;100.00
5296;BME280;2670;42.720;23.336;2023-05-07T06:56:39;-22831.22;;;13.39;100.00
5296;BME280;2670;42.720;23.336;2023-05-07T06:59:07;-22831.09;;;13.38;100.00
5296;BME280;2670;42.720;23.336;2023-05-07T07:01:33;-22835.22;;;13.53;100.00
5296;BME280;2670;42.720;23.336;2023-05-07T07:04:00;-22838.16;;;13.63;100.00
5296;BME280;2670;42.720;23.336;2023-05-07T07:06:28;-22839.34;;;13.67;100.00
5296;BME280;2670;42.720;23.336;2023-05-07T07:08:56;-22840.22;;;13.70;100.00
5296;BME280;2670;42.720;23.336;2023-05-07T07:11:23;-22844.66;;;13.85;100.00
5296;BME280;2670;42.720;23.336;2023-05-07T07:13:50;-22845.25;;;13.87;99.57
5296;BME280;2670;42.720;23.336;2023-05-07T07:16:17;-22844.66;;;13.85;100.00
5296;BME280;2670;42.720;23.336;2023-05-07T07:18:43;-22851.75;;;14.10;99.55
5296;BME280;2670;42.720;23.336;2023-05-07T07:21:10;-22849.09;;;14.01;100.00
5296;BME280;2670;42.720;23.336;2023-05-07T07:23:38;-22846.88;;;13.93;100.00
5296;BME280;2670;42.720;23.336;2023-05-07T07:26:05;-22848.78;;;14.00;99.68
5296;BME280;2670;42.720;23.336;2023-05-07T07:28:32;-22851.59;;;14.09;100.00
5296;BME280;2670;42.720;23.336;2023-05-07T07:30:59;-22853.94;;;14.17;98.81
5296;BME280;2670;42.720;23.336;2023-05-07T07:33:25;-22860.59;;;14.40;97.10
5296;BME280;2670;42.720;23.336;2023-05-07T07:35:52;-22865.31;;;14.57;98.11
5296;BME280;2670;42.720;23.336;2023-05-07T07:38:19;-22866.06;;;14.59;100.00
5296;BME280;2670;42.720;23.336;2023-05-07T07:40:48;-22870.19;;;14.74;97.44
5296;BME280;2670;42.720;23.336;2023-05-07T07:43:15;-22874.16;;;14.87;94.38
5296;BME280;2670;42.720;23.336;2023-05-07T07:45:42;-22873.28;;;14.84;96.42
5296;BME280;2670;42.720;23.336;2023-05-07T07:48:09;-22875.19;;;14.91;98.60
5296;BME280;2670;42.720;23.336;2023-05-07T07:50:35;-22881.38;;;15.12;95.61
5296;BME280;2670;42.720;23.336;2023-05-07T07:53:02;-22882.69;;;15.17;92.24
5296;BME280;2670;42.720;23.336;2023-05-07T07:55:29;-22889.91;;;15.42;89.78
5296;BME280;2670;42.720;23.336;2023-05-07T07:57:58;-22885.94;;;15.28;90.97
5296;BME280;2670;42.720;23.336;2023-05-07T08:00:25;-22884.75;;;15.24;90.73
5296;BME280;2670;42.720;23.336;2023-05-07T08:02:51;-22891.53;;;15.48;89.85
5296;BME280;2670;42.720;23.336;2023-05-07T08:05:18;-22893.91;;;15.56;92.06
5296;BME280;2670;42.720;23.336;2023-05-07T08:07:45;-22894.63;;;15.58;92.77
5296;BME280;2670;42.720;23.336;2023-05-07T08:10:17;-22897.72;;;15.69;91.86
5296;BME280;2670;42.720;23.336;2023-05-07T08:12:46;-22907.59;;;16.03;88.21
5296;BME280;2670;42.720;23.336;2023-05-07T08:15:15;-22908.31;;;16.06;89.63
5296;BME280;2670;42.720;23.336;2023-05-07T08:17:42;-22910.22;;;16.12;87.12
5296;BME280;2670;42.720;23.336;2023-05-07T08:20:09;-22908.19;;;16.05;89.90
5296;BME280;2670;42.720;23.336;2023-05-07T08:22:36;-22913.31;;;16.23;91.12
5296;BME280;2670;42.720;23.336;2023-05-07T08:25:04;-22916.41;;;16.34;87.22
5296;BME280;2670;42.720;23.336;2023-05-07T08:27:31;-22920.69;;;16.49;81.94
5296;BME280;2670;42.720;23.336;2023-05-07T08:29:57;-22919.94;;;16.46;83.80
5296;BME280;2670;42.720;23.336;2023-05-07T08:32:26;-22930.38;;;16.82;80.59
5296;BME280;2670;42.720;23.336;2023-05-07T08:34:53;-22928.31;;;16.75;83.19
5296;BME280;2670;42.720;23.336;2023-05-07T08:37:20;-22929.94;;;16.81;80.68
5296;BME280;2670;42.720;23.336;2023-05-07T08:39:47;-22930.69;;;16.83;81.26
5296;BME280;2670;42.720;23.336;2023-05-07T08:42:15;-22933.47;;;16.93;82.09
5296;BME280;2670;42.720;23.336;2023-05-07T08:44:45;-22936.28;;;17.03;79.36
5296;BME280;2670;42.720;23.336;2023-05-07T08:47:13;-22937.28;;;17.06;80.25
5296;BME280;2670;42.720;23.336;2023-05-07T08:49:41;-22943.19;;;17.27;83.04
5296;BME280;2670;42.720;23.336;2023-05-07T08:52:08;-22953.59;;;17.63;77.90
5296;BME280;2670;42.720;23.336;2023-05-07T08:54:37;-22949.94;;;17.50;79.15
5296;BME280;2670;42.720;23.336;2023-05-07T08:57:03;-22952.28;;;17.58;78.13
5296;BME280;2670;42.720;23.336;2023-05-07T08:59:30;-22952.56;;;17.59;77.95
5296;BME280;2670;42.720;23.336;2023-05-07T09:01:57;-22958.44;;;17.80;76.61
5296;BME280;2670;42.720;23.336;2023-05-07T09:04:24;-22960.94;;;17.88;77.38
5296;BME280;2670;42.720;23.336;2023-05-07T09:06:52;-22965.66;;;18.05;74.53
5296;BME280;2670;42.720;23.336;2023-05-07T09:09:18;-22969.03;;;18.16;76.21
5296;BME280;2670;42.720;23.336;2023-05-07T09:11:45;-22972.84;;;18.30;73.47
5296;BME280;2670;42.720;23.336;2023-05-07T09:14:12;-22975.03;;;18.37;74.61
5296;BME280;2670;42.720;23.336;2023-05-07T09:16:39;-22979.59;;;18.53;75.92
5296;BME280;2670;42.720;23.336;2023-05-07T09:19:06;-22985.00;;;18.72;73.96
5296;BME280;2670;42.720;23.336;2023-05-07T09:21:32;-22983.53;;;18.67;72.37
5296;BME280;2670;42.720;23.336;2023-05-07T09:24:00;-22988.84;;;18.85;71.57
5296;BME280;2670;42.720;23.336;2023-05-07T09:26:27;-22991.75;;;18.96;72.04
5296;BME280;2670;42.720;23.336;2023-05-07T09:28:54;-22994.25;;;19.04;69.84
5296;BME280;2670;42.720;23.336;2023-05-07T09:31:20;-22999.09;;;19.21;69.05
5296;BME280;2670;42.720;23.336;2023-05-07T09:33:48;-23001.56;;;19.30;66.98
5296;BME280;2670;42.720;23.336;2023-05-07T09:36:15;-23003.19;;;19.35;65.17
5296;BME280;2670;42.720;23.336;2023-05-07T09:38:42;-23003.94;;;19.38;65.02
5296;BME280;2670;42.720;23.336;2023-05-07T09:41:11;-23005.53;;;19.44;64.86
5296;BME280;2670;42.720;23.336;2023-05-07T09:43:39;-23009.19;;;19.56;62.79
5296;BME280;2670;42.720;23.336;2023-05-07T09:46:11;-23012.00;;;19.66;63.67
5296;BME280;2670;42.720;23.336;2023-05-07T09:48:39;-23014.91;;;19.76;61.47
5296;BME280;2670;42.720;23.336;2023-05-07T09:51:25;-23015.94;;;19.80;61.33
5296;BME280;2670;42.720;23.336;2023-05-07T09:53:56;-23022.22;;;20.02;61.34
5296;BME280;2670;42.720;23.336;2023-05-07T09:56:26;-23021.66;;;20.00;60.45
5296;BME280;2670;42.720;23.336;2023-05-07T09:58:55;-23024.44;;;20.09;60.16
5296;BME280;2670;42.720;23.336;2023-05-07T10:01:24;-23026.78;;;20.18;58.49
5296;BME280;2670;42.720;23.336;2023-05-07T10:03:52;-23021.06;;;19.98;59.39
5296;BME280;2670;42.720;23.336;2023-05-07T10:06:19;-23022.69;;;20.03;60.38
5296;BME280;2670;42.720;23.336;2023-05-07T10:08:47;-23029.56;;;20.27;58.55
5296;BME280;2670;42.720;23.336;2023-05-07T10:11:16;-23029.13;;;20.26;59.96
5296;BME280;2670;42.720;23.336;2023-05-07T10:13:45;-23035.13;;;20.47;57.30
5296;BME280;2670;42.720;23.336;2023-05-07T10:16:12;-23035.72;;;20.49;57.77
5296;BME280;2670;42.720;23.336;2023-05-07T10:18:40;-23040.97;;;20.67;55.17
5296;BME280;2670;42.720;23.336;2023-05-07T10:21:08;-23038.91;;;20.60;55.04
5296;BME280;2670;42.720;23.336;2023-05-07T10:23:38;-23043.03;;;20.74;55.59
5296;BME280;2670;42.720;23.336;2023-05-07T10:26:07;-23045.22;;;20.82;53.98
5296;BME280;2670;42.720;23.336;2023-05-07T10:28:37;-23039.81;;;20.63;56.02
5296;BME280;2670;42.720;23.336;2023-05-07T10:31:17;-23038.34;;;20.58;55.39
5296;BME280;2670;42.720;23.336;2023-05-07T10:33:46;-23038.34;;;20.58;55.09
5296;BME280;2670;42.720;23.336;2023-05-07T10:36:15;-23042.13;;;20.71;57.83
5296;BME280;2670;42.720;23.336;2023-05-07T10:38:42;-23048.44;;;20.93;55.68
5296;BME280;2670;42.720;23.336;2023-05-07T10:41:10;-23051.06;;;21.02;55.33
5296;BME280;2670;42.720;23.336;2023-05-07T10:43:41;-23049.75;;;20.98;54.44
5296;BME280;2670;42.720;23.336;2023-05-07T10:46:17;-23049.88;;;20.98;56.78
5296;BME280;2670;42.720;23.336;2023-05-07T10:49:11;-23051.06;;;21.02;54.73
5296;BME280;2670;42.720;23.336;2023-05-07T10:51:38;-23048.88;;;20.95;55.87
5296;BME280;2670;42.720;23.336;2023-05-07T10:54:21;-23047.25;;;20.89;54.38
5296;BME280;2670;42.720;23.336;2023-05-07T10:56:49;-23048.56;;;20.94;54.13
5296;BME280;2670;42.720;23.336;2023-05-07T10:59:35;-23058.50;;;21.28;54.30
5296;BME280;2670;42.720;23.336;2023-05-07T11:02:08;-23060.28;;;21.34;52.93
5296;BME280;2670;42.720;23.336;2023-05-07T11:04:36;-23065.25;;;21.52;54.51
5296;BME280;2670;42.720;23.336;2023-05-07T11:12:49;-23071.53;;;21.74;51.95
5296;BME280;2670;42.720;23.336;2023-05-07T11:15:38;-23071.97;;;21.75;50.58
5296;BME280;2670;42.720;23.336;2023-05-07T11:18:08;-23069.19;;;21.66;50.46
5296;BME280;2670;42.720;23.336;2023-05-07T11:20:45;-23071.97;;;21.75;51.68
5296;BME280;2670;42.720;23.336;2023-05-07T11:26:15;-23081.88;;;22.10;49.60
5296;BME280;2670;42.720;23.336;2023-05-07T11:28:43;-23078.97;;;22.00;49.04
5296;BME280;2670;42.720;23.336;2023-05-07T11:31:10;-23078.69;;;21.99;47.83
5296;BME280;2670;42.720;23.336;2023-05-07T11:33:38;-23081.44;;;22.08;45.83
5296;BME280;2670;42.720;23.336;2023-05-07T11:36:08;-23078.25;;;21.97;47.23
5296;BME280;2670;42.720;23.336;2023-05-07T11:38:35;-23080.56;;;22.05;45.70
5296;BME280;2670;42.720;23.336;2023-05-07T11:41:03;-23078.69;;;21.99;45.78
5296;BME280;2670;42.720;23.336;2023-05-07T11:43:30;-23083.19;;;22.15;44.10
5296;BME280;2670;42.720;23.336;2023-05-07T11:46:05;-23084.50;;;22.19;42.59
5296;BME280;2670;42.720;23.336;2023-05-07T11:48:32;-23080.28;;;22.04;43.48
5296;BME280;2670;42.720;23.336;2023-05-07T11:51:02;-23088.31;;;22.32;41.06
5296;BME280;2670;42.720;23.336;2023-05-07T11:53:36;-23088.16;;;22.32;41.67
5296;BME280;2670;42.720;23.336;2023-05-07T11:56:06;-23092.69;;;22.48;41.26
5296;BME280;2670;42.720;23.336;2023-05-07T11:58:33;-23089.91;;;22.38;41.81
5296;BME280;2670;42.720;23.336;2023-05-07T12:01:00;-23092.25;;;22.46;42.04
5296;BME280;2670;42.720;23.336;2023-05-07T12:03:26;-23097.34;;;22.64;40.30
5296;BME280;2670;42.720;23.336;2023-05-07T12:05:53;-23096.78;;;22.62;39.96
5296;BME280;2670;42.720;23.336;2023-05-07T12:08:21;-23095.03;;;22.56;40.51
5296;BME280;2670;42.720;23.336;2023-05-07T12:10:49;-23093.72;;;22.51;40.19
5296;BME280;2670;42.720;23.336;2023-05-07T12:13:17;-23096.34;;;22.60;38.74
5296;BME280;2670;42.720;23.336;2023-05-07T12:15:44;-23094.72;;;22.55;38.44
5296;BME280;2670;42.720;23.336;2023-05-07T12:18:11;-23093.56;;;22.51;38.89
5296;BME280;2670;42.720;23.336;2023-05-07T12:20:39;-23098.22;;;22.67;37.23
5296;BME280;2670;42.720;23.336;2023-05-07T12:23:06;-23096.19;;;22.60;38.75
5296;BME280;2670;42.720;23.336;2023-05-07T12:25:36;-23092.84;;;22.48;38.07
5296;BME280;2670;42.720;23.336;2023-05-07T12:28:04;-23096.03;;;22.59;38.42
5296;BME280;2670;42.720;23.336;2023-05-07T12:30:31;-23097.94;;;22.66;37.33
5296;BME280;2670;42.720;23.336;2023-05-07T12:33:00;-23098.22;;;22.67;37.17
5296;BME280;2670;42.720;23.336;2023-05-07T12:35:27;-23093.72;;;22.51;38.52
5296;BME280;2670;42.720;23.336;2023-05-07T12:37:58;-23095.03;;;22.56;39.42
5296;BME280;2670;42.720;23.336;2023-05-07T12:40:38;-23090.50;;;22.40;38.53
5296;BME280;2670;42.720;23.336;2023-05-07T12:43:05;-23089.78;;;22.37;37.79
5296;BME280;2670;42.720;23.336;2023-05-07T12:45:36;-23092.41;;;22.47;38.69
5296;BME280;2670;42.720;23.336;2023-05-07T12:48:04;-23089.91;;;22.38;39.51
5296;BME280;2670;42.720;23.336;2023-05-07T12:50:31;-23088.16;;;22.32;39.46
5296;BME280;2670;42.720;23.336;2023-05-07T12:52:58;-23093.84;;;22.52;39.04
5296;BME280;2670;42.720;23.336;2023-05-07T12:55:25;-23097.50;;;22.65;39.83
5296;BME280;2670;42.720;23.336;2023-05-07T12:57:53;-23103.03;;;22.84;38.10
5296;BME280;2670;42.720;23.336;2023-05-07T13:00:33;-23109.31;;;23.06;37.29
5296;BME280;2670;42.720;23.336;2023-05-07T13:02:59;-23110.91;;;23.11;38.43
5296;BME280;2670;42.720;23.336;2023-05-07T13:05:26;-23115.00;;;23.26;37.90
5296;BME280;2670;42.720;23.336;2023-05-07T13:07:53;-23113.09;;;23.19;38.63
5296;BME280;2670;42.720;23.336;2023-05-07T13:10:21;-23116.31;;;23.30;38.10